sensor_id;sensor_type;location;lat;lon;timestamp;P1;durP1;ratioP1;P2;durP2;ratioP2
57331;SDS011;43164;50.908;18.092;2023-12-20T00:01:18;8.10;;;4.20;;
57331;SDS011;43164;50.908;18.092;2023-12-20T00:03:47;7.80;;;4.30;;
57331;SDS011;43164;50.908;18.092;2023-12-20T00:06:21;7.60;;;4.10;;
57331;SDS011;43164;50.908;18.092;2023-12-20T00:08:53;7.50;;;4.00;;
57331;SDS011;43164;50.908;18.092;2023-12-20T00:11:22;7.30;;;4.00;;
57331;SDS011;43164;50.908;18.092;2023-12-20T00:13:50;7.60;;;3.80;;
57331;SDS011;43164;50.908;18.092;2023-12-20T00:16:20;8.30;;;4.50;;
57331;SDS011;43164;50.908;18.092;2023-12-20T00:18:46;6.30;;;3.80;;
57331;SDS011;43164;50.908;18.092;2023-12-20T00:21:14;7.80;;;4.10;;
57331;SDS011;43164;50.908;18.092;2023-12-20T00:23:42;6.50;;;3.90;;
57331;SDS011;43164;50.908;18.092;2023-12-20T00:26:17;7.70;;;3.80;;
57331;SDS011;43164;50.908;18.092;2023-12-20T00:28:46;7.00;;;3.90;;
57331;SDS011;43164;50.908;18.092;2023-12-20T00:31:14;7.70;;;4.20;;
57331;SDS011;43164;50.908;18.092;2023-12-20T00:33:42;6.90;;;4.10;;
57331;SDS011;43164;50.908;18.092;2023-12-20T00:36:12;9.10;;;4.30;;
57331;SDS011;43164;50.908;18.092;2023-12-20T00:38:40;8.30;;;4.70;;
57331;SDS011;43164;50.908;18.092;2023-12-20T00:41:07;9.60;;;4.90;;
57331;SDS011;43164;50.908;18.092;2023-12-20T00:43:37;8.80;;;4.20;;
57331;SDS011;43164;50.908;18.092;2023-12-20T00:46:05;8.70;;;4.50;;
57331;SDS011;43164;50.908;18.092;2023-12-20T00:48:34;8.80;;;4.40;;
57331;SDS011;43164;50.908;18.092;2023-12-20T00:51:03;8.50;;;5.00;;
57331;SDS011;43164;50.908;18.092;2023-12-20T00:53:31;7.80;;;4.30;;
57331;SDS011;43164;50.908;18.092;2023-12-20T00:55:59;7.90;;;4.60;;
57331;SDS011;43164;50.908;18.092;2023-12-20T00:58:26;9.40;;;5.00;;
57331;SDS011;43164;50.908;18.092;2023-12-20T01:00:55;9.60;;;4.50;;
57331;SDS011;43164;50.908;18.092;2023-12-20T01:03:25;8.10;;;4.80;;
57331;SDS011;43164;50.908;18.092;2023-12-20T01:05:56;7.50;;;4.40;;
57331;SDS011;43164;50.908;18.092;2023-12-20T01:08:24;7.40;;;4.60;;
57331;SDS011;43164;50.908;18.092;2023-12-20T01:10:52;7.40;;;4.40;;
57331;SDS011;43164;50.908;18.092;2023-12-20T01:13:20;7.10;;;4.10;;
57331;SDS011;43164;50.908;18.092;2023-12-20T01:15:48;6.80;;;4.20;;
57331;SDS011;43164;50.908;18.092;2023-12-20T01:18:19;6.50;;;4.00;;
57331;SDS011;43164;50.908;18.092;2023-12-20T01:20:46;8.50;;;4.20;;
57331;SDS011;43164;50.908;18.092;2023-12-20T01:23:15;7.30;;;4.50;;
57331;SDS011;43164;50.908;18.092;2023-12-20T01:25:43;7.90;;;4.40;;
57331;SDS011;43164;50.908;18.092;2023-12-20T01:28:11;7.10;;;4.10;;
57331;SDS011;43164;50.908;18.092;2023-12-20T01:30:39;6.40;;;3.70;;
57331;SDS011;43164;50.908;18.092;2023-12-20T01:33:06;6.60;;;4.00;;
57331;SDS011;43164;50.908;18.092;2023-12-20T01:35:34;7.60;;;4.40;;
57331;SDS011;43164;50.908;18.092;2023-12-20T01:38:01;6.80;;;4.10;;
57331;SDS011;43164;50.908;18.092;2023-12-20T01:40:30;6.20;;;3.40;;
57331;SDS011;43164;50.908;18.092;2023-12-20T01:43:02;6.40;;;3.90;;
57331;SDS011;43164;50.908;18.092;2023-12-20T01:45:43;6.60;;;3.70;;
57331;SDS011;43164;50.908;18.092;2023-12-20T01:48:11;9.00;;;4.00;;
57331;SDS011;43164;50.908;18.092;2023-12-20T01:50:39;6.00;;;3.70;;
57331;SDS011;43164;50.908;18.092;2023-12-20T01:53:09;7.40;;;4.30;;
57331;SDS011;43164;50.908;18.092;2023-12-20T01:55:39;8.50;;;4.20;;
57331;SDS011;43164;50.908;18.092;2023-12-20T01:58:07;8.60;;;4.80;;
57331;SDS011;43164;50.908;18.092;2023-12-20T02:00:36;7.00;;;4.20;;
57331;SDS011;43164;50.908;18.092;2023-12-20T02:03:04;6.70;;;4.40;;
57331;SDS011;43164;50.908;18.092;2023-12-20T02:05:32;7.50;;;4.20;;
57331;SDS011;43164;50.908;18.092;2023-12-20T02:08:00;7.30;;;4.50;;
57331;SDS011;43164;50.908;18.092;2023-12-20T02:10:28;8.30;;;5.00;;
57331;SDS011;43164;50.908;18.092;2023-12-20T02:13:03;9.40;;;4.60;;
57331;SDS011;43164;50.908;18.092;2023-12-20T02:17:59;8.60;;;4.70;;
57331;SDS011;43164;50.908;18.092;2023-12-20T02:20:25;9.10;;;5.10;;
57331;SDS011;43164;50.908;18.092;2023-12-20T02:22:52;8.00;;;5.10;;
57331;SDS011;43164;50.908;18.092;2023-12-20T02:25:19;9.10;;;5.50;;
57331;SDS011;43164;50.908;18.092;2023-12-20T02:27:45;8.20;;;5.70;;
57331;SDS011;43164;50.908;18.092;2023-12-20T02:30:13;8.50;;;6.00;;
57331;SDS011;43164;50.908;18.092;2023-12-20T02:32:42;9.30;;;5.70;;
57331;SDS011;43164;50.908;18.092;2023-12-20T02:35:10;10.80;;;6.60;;
57331;SDS011;43164;50.908;18.092;2023-12-20T02:37:37;8.30;;;6.00;;
57331;SDS011;43164;50.908;18.092;2023-12-20T02:40:05;10.10;;;7.10;;
57331;SDS011;43164;50.908;18.092;2023-12-20T02:42:34;9.70;;;6.10;;
57331;SDS011;43164;50.908;18.092;2023-12-20T02:45:01;11.30;;;6.80;;
57331;SDS011;43164;50.908;18.092;2023-12-20T02:47:29;9.60;;;6.70;;
57331;SDS011;43164;50.908;18.092;2023-12-20T02:49:57;9.60;;;6.70;;
57331;SDS011;43164;50.908;18.092;2023-12-20T02:52:25;9.40;;;6.70;;
57331;SDS011;43164;50.908;18.092;2023-12-20T02:54:54;10.20;;;7.40;;
57331;SDS011;43164;50.908;18.092;2023-12-20T02:57:22;10.30;;;7.70;;
57331;SDS011;43164;50.908;18.092;2023-12-20T02:59:50;9.90;;;6.90;;
57331;SDS011;43164;50.908;18.092;2023-12-20T03:02:18;10.40;;;7.40;;
57331;SDS011;43164;50.908;18.092;2023-12-20T03:04:47;9.40;;;7.20;;
57331;SDS011;43164;50.908;18.092;2023-12-20T03:07:15;9.90;;;7.50;;
57331;SDS011;43164;50.908;18.092;2023-12-20T03:09:43;10.30;;;7.70;;
57331;SDS011;43164;50.908;18.092;2023-12-20T03:12:11;10.90;;;7.90;;
57331;SDS011;43164;50.908;18.092;2023-12-20T03:14:39;11.20;;;8.40;;
57331;SDS011;43164;50.908;18.092;2023-12-20T03:17:07;10.10;;;7.60;;
57331;SDS011;43164;50.908;18.092;2023-12-20T03:19:35;12.60;;;7.70;;
57331;SDS011;43164;50.908;18.092;2023-12-20T03:22:03;10.70;;;7.60;;
57331;SDS011;43164;50.908;18.092;2023-12-20T03:24:31;10.50;;;8.10;;
57331;SDS011;43164;50.908;18.092;2023-12-20T03:26:59;10.90;;;8.00;;
57331;SDS011;43164;50.908;18.092;2023-12-20T03:29:27;12.60;;;8.20;;
57331;SDS011;43164;50.908;18.092;2023-12-20T03:31:55;11.10;;;7.50;;
57331;SDS011;43164;50.908;18.092;2023-12-20T03:34:24;11.10;;;7.90;;
57331;SDS011;43164;50.908;18.092;2023-12-20T03:36:52;10.40;;;7.30;;
57331;SDS011;43164;50.908;18.092;2023-12-20T03:39:21;11.90;;;7.70;;
57331;SDS011;43164;50.908;18.092;2023-12-20T03:41:48;10.50;;;7.80;;
57331;SDS011;43164;50.908;18.092;2023-12-20T03:44:16;9.90;;;7.50;;
57331;SDS011;43164;50.908;18.092;2023-12-20T03:46:44;9.40;;;7.40;;
57331;SDS011;43164;50.908;18.092;2023-12-20T03:49:12;10.10;;;7.20;;
57331;SDS011;43164;50.908;18.092;2023-12-20T03:51:44;10.70;;;7.50;;
57331;SDS011;43164;50.908;18.092;2023-12-20T03:54:11;10.10;;;7.60;;
57331;SDS011;43164;50.908;18.092;2023-12-20T03:56:38;10.10;;;8.00;;
57331;SDS011;43164;50.908;18.092;2023-12-20T03:59:05;9.80;;;7.20;;
57331;SDS011;43164;50.908;18.092;2023-12-20T04:01:33;10.80;;;7.30;;
57331;SDS011;43164;50.908;18.092;2023-12-20T04:04:01;10.10;;;7.40;;
57331;SDS011;43164;50.908;18.092;2023-12-20T04:06:29;10.00;;;7.50;;
57331;SDS011;43164;50.908;18.092;2023-12-20T04:08:56;11.50;;;7.80;;
57331;SDS011;43164;50.908;18.092;2023-12-20T04:11:26;10.00;;;7.60;;
57331;SDS011;43164;50.908;18.092;2023-12-20T04:14:10;11.40;;;8.00;;
57331;SDS011;43164;50.908;18.092;2023-12-20T04:16:40;11.60;;;8.30;;
57331;SDS011;43164;50.908;18.092;2023-12-20T04:19:07;10.30;;;7.90;;
57331;SDS011;43164;50.908;18.092;2023-12-20T04:21:38;11.00;;;8.40;;
57331;SDS011;43164;50.908;18.092;2023-12-20T04:24:06;10.20;;;7.90;;
57331;SDS011;43164;50.908;18.092;2023-12-20T04:26:35;10.40;;;7.90;;
57331;SDS011;43164;50.908;18.092;2023-12-20T04:29:02;10.70;;;7.80;;
57331;SDS011;43164;50.908;18.092;2023-12-20T04:31:30;10.90;;;8.10;;
57331;SDS011;43164;50.908;18.092;2023-12-20T04:34:00;10.50;;;7.90;;
57331;SDS011;43164;50.908;18.092;2023-12-20T04:36:27;11.00;;;8.30;;
57331;SDS011;43164;50.908;18.092;2023-12-20T04:38:57;10.60;;;7.90;;
57331;SDS011;43164;50.908;18.092;2023-12-20T04:41:28;12.70;;;8.10;;
57331;SDS011;43164;50.908;18.092;2023-12-20T04:43:56;10.50;;;8.00;;
57331;SDS011;43164;50.908;18.092;2023-12-20T04:46:27;11.20;;;8.60;;
57331;SDS011;43164;50.908;18.092;2023-12-20T04:48:55;9.90;;;7.10;;
57331;SDS011;43164;50.908;18.092;2023-12-20T04:51:22;10.40;;;7.80;;
57331;SDS011;43164;50.908;18.092;2023-12-20T04:53:49;10.70;;;7.90;;
57331;SDS011;43164;50.908;18.092;2023-12-20T04:56:18;10.60;;;7.90;;
57331;SDS011;43164;50.908;18.092;2023-12-20T04:58:45;11.00;;;8.00;;
57331;SDS011;43164;50.908;18.092;2023-12-20T05:01:13;10.60;;;8.10;;
57331;SDS011;43164;50.908;18.092;2023-12-20T05:03:45;10.90;;;7.80;;
57331;SDS011;43164;50.908;18.092;2023-12-20T05:06:12;10.20;;;7.60;;
57331;SDS011;43164;50.908;18.092;2023-12-20T05:08:40;9.90;;;7.60;;
57331;SDS011;43164;50.908;18.092;2023-12-20T05:11:07;10.60;;;7.60;;
57331;SDS011;43164;50.908;18.092;2023-12-20T05:13:36;12.40;;;8.00;;
57331;SDS011;43164;50.908;18.092;2023-12-20T05:16:03;10.80;;;8.30;;
57331;SDS011;43164;50.908;18.092;2023-12-20T05:18:32;10.40;;;7.80;;
57331;SDS011;43164;50.908;18.092;2023-12-20T05:21:00;11.40;;;7.90;;
57331;SDS011;43164;50.908;18.092;2023-12-20T05:23:27;10.20;;;7.60;;
57331;SDS011;43164;50.908;18.092;2023-12-20T05:25:55;11.50;;;8.40;;
57331;SDS011;43164;50.908;18.092;2023-12-20T05:28:24;10.80;;;7.80;;
57331;SDS011;43164;50.908;18.092;2023-12-20T05:30:53;9.50;;;7.20;;
57331;SDS011;43164;50.908;18.092;2023-12-20T05:33:21;9.50;;;7.20;;
57331;SDS011;43164;50.908;18.092;2023-12-20T05:35:49;12.40;;;8.30;;
57331;SDS011;43164;50.908;18.092;2023-12-20T05:38:17;10.70;;;8.40;;
57331;SDS011;43164;50.908;18.092;2023-12-20T05:40:52;8.10;;;3.30;;
57331;SDS011;43164;50.908;18.092;2023-12-20T05:43:26;9.50;;;7.30;;
57331;SDS011;43164;50.908;18.092;2023-12-20T05:45:54;10.00;;;7.60;;
57331;SDS011;43164;50.908;18.092;2023-12-20T05:48:23;10.40;;;7.60;;
57331;SDS011;43164;50.908;18.092;2023-12-20T05:50:51;10.60;;;7.80;;
57331;SDS011;43164;50.908;18.092;2023-12-20T05:53:18;10.00;;;7.30;;
57331;SDS011;43164;50.908;18.092;2023-12-20T05:55:46;8.70;;;5.80;;
57331;SDS011;43164;50.908;18.092;2023-12-20T05:58:14;9.60;;;6.40;;
57331;SDS011;43164;50.908;18.092;2023-12-20T06:00:43;9.60;;;6.60;;
57331;SDS011;43164;50.908;18.092;2023-12-20T06:03:12;8.30;;;6.00;;
57331;SDS011;43164;50.908;18.092;2023-12-20T06:05:38;8.60;;;5.50;;
57331;SDS011;43164;50.908;18.092;2023-12-20T06:08:06;6.70;;;4.30;;
57331;SDS011;43164;50.908;18.092;2023-12-20T06:10:34;5.30;;;1.90;;
57331;SDS011;43164;50.908;18.092;2023-12-20T06:13:01;6.80;;;4.50;;
57331;SDS011;43164;50.908;18.092;2023-12-20T06:15:30;5.50;;;3.80;;
57331;SDS011;43164;50.908;18.092;2023-12-20T06:17:58;5.70;;;3.70;;
57331;SDS011;43164;50.908;18.092;2023-12-20T06:20:26;6.00;;;3.50;;
57331;SDS011;43164;50.908;18.092;2023-12-20T06:22:54;6.40;;;3.60;;
57331;SDS011;43164;50.908;18.092;2023-12-20T06:25:26;6.70;;;3.60;;
57331;SDS011;43164;50.908;18.092;2023-12-20T06:27:55;5.00;;;1.60;;
57331;SDS011;43164;50.908;18.092;2023-12-20T06:30:41;6.90;;;2.50;;
57331;SDS011;43164;50.908;18.092;2023-12-20T06:33:10;9.30;;;6.50;;
57331;SDS011;43164;50.908;18.092;2023-12-20T06:35:42;9.60;;;6.70;;
57331;SDS011;43164;50.908;18.092;2023-12-20T06:38:10;10.30;;;7.00;;
57331;SDS011;43164;50.908;18.092;2023-12-20T06:40:38;9.90;;;7.10;;
57331;SDS011;43164;50.908;18.092;2023-12-20T06:43:06;9.60;;;6.90;;
57331;SDS011;43164;50.908;18.092;2023-12-20T06:45:38;9.30;;;7.20;;
57331;SDS011;43164;50.908;18.092;2023-12-20T06:48:11;10.40;;;7.70;;
57331;SDS011;43164;50.908;18.092;2023-12-20T06:50:40;9.30;;;6.40;;
57331;SDS011;43164;50.908;18.092;2023-12-20T06:53:15;9.50;;;6.60;;
57331;SDS011;43164;50.908;18.092;2023-12-20T06:55:46;8.70;;;5.90;;
57331;SDS011;43164;50.908;18.092;2023-12-20T06:58:15;10.00;;;6.40;;
57331;SDS011;43164;50.908;18.092;2023-12-20T07:00:47;6.20;;;2.90;;
57331;SDS011;43164;50.908;18.092;2023-12-20T07:03:55;10.40;;;7.10;;
57331;SDS011;43164;50.908;18.092;2023-12-20T07:06:35;10.00;;;6.90;;
57331;SDS011;43164;50.908;18.092;2023-12-20T07:09:11;11.20;;;8.10;;
57331;SDS011;43164;50.908;18.092;2023-12-20T07:11:55;9.80;;;7.50;;
57331;SDS011;43164;50.908;18.092;2023-12-20T07:14:45;9.60;;;7.30;;
57331;SDS011;43164;50.908;18.092;2023-12-20T07:17:15;9.30;;;7.30;;
57331;SDS011;43164;50.908;18.092;2023-12-20T07:19:44;8.70;;;3.90;;
57331;SDS011;43164;50.908;18.092;2023-12-20T07:22:11;9.80;;;7.20;;
57331;SDS011;43164;50.908;18.092;2023-12-20T07:24:41;10.60;;;7.50;;
57331;SDS011;43164;50.908;18.092;2023-12-20T07:27:10;11.10;;;8.60;;
57331;SDS011;43164;50.908;18.092;2023-12-20T07:29:36;8.40;;;6.50;;
57331;SDS011;43164;50.908;18.092;2023-12-20T07:32:06;8.50;;;6.50;;
57331;SDS011;43164;50.908;18.092;2023-12-20T07:34:34;8.60;;;6.10;;
57331;SDS011;43164;50.908;18.092;2023-12-20T07:37:01;9.50;;;6.50;;
57331;SDS011;43164;50.908;18.092;2023-12-20T07:39:29;9.10;;;6.90;;
57331;SDS011;43164;50.908;18.092;2023-12-20T07:41:57;9.60;;;6.50;;
57331;SDS011;43164;50.908;18.092;2023-12-20T07:44:26;8.80;;;6.10;;
57331;SDS011;43164;50.908;18.092;2023-12-20T07:46:53;9.10;;;6.10;;
57331;SDS011;43164;50.908;18.092;2023-12-20T07:49:19;8.60;;;6.40;;
57331;SDS011;43164;50.908;18.092;2023-12-20T07:51:48;9.30;;;6.60;;
57331;SDS011;43164;50.908;18.092;2023-12-20T07:54:16;9.10;;;6.90;;
57331;SDS011;43164;50.908;18.092;2023-12-20T07:56:45;7.80;;;5.20;;
57331;SDS011;43164;50.908;18.092;2023-12-20T07:59:12;7.70;;;5.10;;
57331;SDS011;43164;50.908;18.092;2023-12-20T08:01:40;7.20;;;5.00;;
57331;SDS011;43164;50.908;18.092;2023-12-20T08:04:09;8.00;;;5.30;;
57331;SDS011;43164;50.908;18.092;2023-12-20T08:06:39;6.80;;;4.30;;
57331;SDS011;43164;50.908;18.092;2023-12-20T08:09:08;7.70;;;4.50;;
57331;SDS011;43164;50.908;18.092;2023-12-20T08:11:36;6.00;;;4.30;;
57331;SDS011;43164;50.908;18.092;2023-12-20T08:14:04;6.40;;;4.40;;
57331;SDS011;43164;50.908;18.092;2023-12-20T08:16:31;6.90;;;4.20;;
57331;SDS011;43164;50.908;18.092;2023-12-20T08:18:58;5.40;;;3.70;;
57331;SDS011;43164;50.908;18.092;2023-12-20T08:21:26;6.10;;;3.80;;
57331;SDS011;43164;50.908;18.092;2023-12-20T08:23:55;6.40;;;3.90;;
57331;SDS011;43164;50.908;18.092;2023-12-20T08:26:21;6.20;;;3.80;;
57331;SDS011;43164;50.908;18.092;2023-12-20T08:28:50;6.00;;;3.70;;
57331;SDS011;43164;50.908;18.092;2023-12-20T08:31:19;6.20;;;3.70;;
57331;SDS011;43164;50.908;18.092;2023-12-20T08:34:10;6.90;;;4.50;;
57331;SDS011;43164;50.908;18.092;2023-12-20T08:36:42;4.80;;;3.00;;
57331;SDS011;43164;50.908;18.092;2023-12-20T08:39:13;4.80;;;3.20;;
57331;SDS011;43164;50.908;18.092;2023-12-20T08:41:40;5.80;;;3.00;;
57331;SDS011;43164;50.908;18.092;2023-12-20T08:44:09;5.10;;;2.90;;
57331;SDS011;43164;50.908;18.092;2023-12-20T08:46:41;5.20;;;3.20;;
57331;SDS011;43164;50.908;18.092;2023-12-20T08:49:10;5.10;;;3.10;;
57331;SDS011;43164;50.908;18.092;2023-12-20T08:51:50;5.10;;;3.00;;
57331;SDS011;43164;50.908;18.092;2023-12-20T08:54:20;5.10;;;3.00;;
57331;SDS011;43164;50.908;18.092;2023-12-20T08:56:50;4.50;;;2.70;;
57331;SDS011;43164;50.908;18.092;2023-12-20T08:59:22;5.20;;;2.90;;
57331;SDS011;43164;50.908;18.092;2023-12-20T09:01:52;4.10;;;2.50;;
57331;SDS011;43164;50.908;18.092;2023-12-20T09:04:28;4.00;;;2.30;;
57331;SDS011;43164;50.908;18.092;2023-12-20T09:07:03;3.80;;;2.30;;
57331;SDS011;43164;50.908;18.092;2023-12-20T09:09:33;6.50;;;2.50;;
57331;SDS011;43164;50.908;18.092;2023-12-20T09:12:06;4.50;;;2.30;;
57331;SDS011;43164;50.908;18.092;2023-12-20T09:14:33;3.70;;;2.10;;
57331;SDS011;43164;50.908;18.092;2023-12-20T09:17:00;3.80;;;2.20;;
57331;SDS011;43164;50.908;18.092;2023-12-20T09:19:29;3.70;;;2.30;;
57331;SDS011;43164;50.908;18.092;2023-12-20T09:21:56;4.00;;;2.20;;
57331;SDS011;43164;50.908;18.092;2023-12-20T09:24:25;4.90;;;2.80;;
57331;SDS011;43164;50.908;18.092;2023-12-20T09:26:53;4.20;;;2.30;;
57331;SDS011;43164;50.908;18.092;2023-12-20T09:29:20;4.80;;;2.30;;
57331;SDS011;43164;50.908;18.092;2023-12-20T09:31:48;3.90;;;2.40;;
57331;SDS011;43164;50.908;18.092;2023-12-20T09:34:15;4.30;;;2.10;;
57331;SDS011;43164;50.908;18.092;2023-12-20T09:36:44;3.30;;;1.80;;
57331;SDS011;43164;50.908;18.092;2023-12-20T09:39:13;5.30;;;2.80;;
57331;SDS011;43164;50.908;18.092;2023-12-20T09:41:43;4.40;;;1.90;;
57331;SDS011;43164;50.908;18.092;2023-12-20T09:44:24;4.00;;;2.10;;
57331;SDS011;43164;50.908;18.092;2023-12-20T09:46:52;3.70;;;1.90;;
57331;SDS011;43164;50.908;18.092;2023-12-20T09:49:21;3.30;;;1.80;;
57331;SDS011;43164;50.908;18.092;2023-12-20T09:51:54;3.60;;;1.60;;
57331;SDS011;43164;50.908;18.092;2023-12-20T09:56:51;5.40;;;2.70;;
57331;SDS011;43164;50.908;18.092;2023-12-20T09:59:20;4.00;;;1.70;;
57331;SDS011;43164;50.908;18.092;2023-12-20T10:01:50;16.70;;;14.20;;
57331;SDS011;43164;50.908;18.092;2023-12-20T10:04:19;5.40;;;1.80;;
57331;SDS011;43164;50.908;18.092;2023-12-20T10:06:50;3.80;;;1.80;;
57331;SDS011;43164;50.908;18.092;2023-12-20T10:09:18;4.80;;;2.50;;
57331;SDS011;43164;50.908;18.092;2023-12-20T10:11:49;2.60;;;1.20;;
57331;SDS011;43164;50.908;18.092;2023-12-20T10:14:19;2.40;;;1.10;;
57331;SDS011;43164;50.908;18.092;2023-12-20T10:16:51;3.50;;;1.20;;
57331;SDS011;43164;50.908;18.092;2023-12-20T10:19:19;3.40;;;1.70;;
57331;SDS011;43164;50.908;18.092;2023-12-20T10:21:46;3.00;;;1.10;;
57331;SDS011;43164;50.908;18.092;2023-12-20T10:24:18;2.60;;;1.10;;
57331;SDS011;43164;50.908;18.092;2023-12-20T10:27:08;3.40;;;1.10;;
57331;SDS011;43164;50.908;18.092;2023-12-20T10:32:24;2.50;;;0.90;;
57331;SDS011;43164;50.908;18.092;2023-12-20T10:35:08;2.50;;;0.80;;
57331;SDS011;43164;50.908;18.092;2023-12-20T10:37:37;1.70;;;0.50;;
57331;SDS011;43164;50.908;18.092;2023-12-20T10:40:07;2.50;;;0.90;;
57331;SDS011;43164;50.908;18.092;2023-12-20T10:42:35;2.60;;;1.00;;
57331;SDS011;43164;50.908;18.092;2023-12-20T10:45:06;2.30;;;0.90;;
57331;SDS011;43164;50.908;18.092;2023-12-20T10:47:36;3.10;;;1.10;;
57331;SDS011;43164;50.908;18.092;2023-12-20T10:50:06;3.20;;;1.10;;
57331;SDS011;43164;50.908;18.092;2023-12-20T10:52:35;2.00;;;0.80;;
57331;SDS011;43164;50.908;18.092;2023-12-20T10:55:04;2.00;;;0.90;;
57331;SDS011;43164;50.908;18.092;2023-12-20T10:57:50;3.40;;;1.00;;
57331;SDS011;43164;50.908;18.092;2023-12-20T11:00:20;2.00;;;0.90;;
57331;SDS011;43164;50.908;18.092;2023-12-20T11:02:50;3.40;;;1.30;;
57331;SDS011;43164;50.908;18.092;2023-12-20T11:05:38;2.70;;;0.90;;
57331;SDS011;43164;50.908;18.092;2023-12-20T11:08:33;3.40;;;1.20;;
57331;SDS011;43164;50.908;18.092;2023-12-20T11:14:54;1.20;;;0.40;;
57331;SDS011;43164;50.908;18.092;2023-12-20T11:17:23;2.90;;;1.00;;
57331;SDS011;43164;50.908;18.092;2023-12-20T11:22:32;2.50;;;0.90;;
57331;SDS011;43164;50.908;18.092;2023-12-20T11:25:07;2.40;;;1.00;;
57331;SDS011;43164;50.908;18.092;2023-12-20T11:27:37;1.80;;;0.80;;
57331;SDS011;43164;50.908;18.092;2023-12-20T11:30:40;2.50;;;0.80;;
57331;SDS011;43164;50.908;18.092;2023-12-20T11:33:22;2.10;;;0.80;;
57331;SDS011;43164;50.908;18.092;2023-12-20T11:35:52;2.60;;;0.80;;
57331;SDS011;43164;50.908;18.092;2023-12-20T11:38:22;3.30;;;1.10;;
57331;SDS011;43164;50.908;18.092;2023-12-20T11:40:50;2.20;;;0.70;;
57331;SDS011;43164;50.908;18.092;2023-12-20T11:43:34;2.30;;;0.70;;
57331;SDS011;43164;50.908;18.092;2023-12-20T11:46:29;1.20;;;0.60;;
57331;SDS011;43164;50.908;18.092;2023-12-20T11:49:04;2.00;;;0.50;;
57331;SDS011;43164;50.908;18.092;2023-12-20T11:51:34;2.20;;;0.60;;
57331;SDS011;43164;50.908;18.092;2023-12-20T11:54:02;2.10;;;0.70;;
57331;SDS011;43164;50.908;18.092;2023-12-20T11:56:31;2.60;;;0.60;;
57331;SDS011;43164;50.908;18.092;2023-12-20T11:58:59;1.30;;;0.40;;
57331;SDS011;43164;50.908;18.092;2023-12-20T12:01:31;1.70;;;0.50;;
57331;SDS011;43164;50.908;18.092;2023-12-20T12:04:08;2.90;;;0.50;;
57331;SDS011;43164;50.908;18.092;2023-12-20T12:06:35;1.70;;;0.50;;
57331;SDS011;43164;50.908;18.092;2023-12-20T12:09:03;3.40;;;0.60;;
57331;SDS011;43164;50.908;18.092;2023-12-20T12:11:31;2.00;;;0.40;;
57331;SDS011;43164;50.908;18.092;2023-12-20T12:13:58;1.40;;;0.50;;
57331;SDS011;43164;50.908;18.092;2023-12-20T12:16:26;3.10;;;0.60;;
57331;SDS011;43164;50.908;18.092;2023-12-20T12:18:59;4.60;;;0.60;;
57331;SDS011;43164;50.908;18.092;2023-12-20T12:21:27;3.60;;;0.50;;
57331;SDS011;43164;50.908;18.092;2023-12-20T12:23:57;3.40;;;0.60;;
57331;SDS011;43164;50.908;18.092;2023-12-20T12:26:42;2.80;;;0.40;;
57331;SDS011;43164;50.908;18.092;2023-12-20T12:29:19;5.00;;;0.40;;
57331;SDS011;43164;50.908;18.092;2023-12-20T12:34:49;2.70;;;0.50;;
57331;SDS011;43164;50.908;18.092;2023-12-20T12:37:16;3.60;;;0.60;;
57331;SDS011;43164;50.908;18.092;2023-12-20T12:39:46;4.90;;;0.40;;
57331;SDS011;43164;50.908;18.092;2023-12-20T12:42:14;1.90;;;0.40;;
57331;SDS011;43164;50.908;18.092;2023-12-20T12:44:42;2.60;;;0.50;;
57331;SDS011;43164;50.908;18.092;2023-12-20T12:47:10;3.10;;;0.40;;
57331;SDS011;43164;50.908;18.092;2023-12-20T12:49:37;4.40;;;0.50;;
57331;SDS011;43164;50.908;18.092;2023-12-20T12:52:12;3.10;;;0.70;;
57331;SDS011;43164;50.908;18.092;2023-12-20T12:54:45;4.60;;;0.60;;
57331;SDS011;43164;50.908;18.092;2023-12-20T12:57:15;3.40;;;0.50;;
57331;SDS011;43164;50.908;18.092;2023-12-20T12:59:44;2.20;;;0.40;;
57331;SDS011;43164;50.908;18.092;2023-12-20T13:02:17;2.20;;;0.50;;
57331;SDS011;43164;50.908;18.092;2023-12-20T13:04:44;3.50;;;0.50;;
57331;SDS011;43164;50.908;18.092;2023-12-20T13:07:12;2.90;;;0.50;;
57331;SDS011;43164;50.908;18.092;2023-12-20T13:09:43;2.70;;;0.50;;
57331;SDS011;43164;50.908;18.092;2023-12-20T13:12:13;5.30;;;0.50;;
57331;SDS011;43164;50.908;18.092;2023-12-20T13:14:41;2.10;;;0.50;;
57331;SDS011;43164;50.908;18.092;2023-12-20T13:17:08;2.00;;;0.50;;
57331;SDS011;43164;50.908;18.092;2023-12-20T13:19:35;4.10;;;0.50;;
57331;SDS011;43164;50.908;18.092;2023-12-20T13:22:08;2.70;;;0.80;;
57331;SDS011;43164;50.908;18.092;2023-12-20T13:24:42;2.70;;;0.50;;
57331;SDS011;43164;50.908;18.092;2023-12-20T13:27:11;2.90;;;0.50;;
57331;SDS011;43164;50.908;18.092;2023-12-20T13:29:43;2.90;;;0.50;;
57331;SDS011;43164;50.908;18.092;2023-12-20T13:32:19;5.30;;;0.50;;
57331;SDS011;43164;50.908;18.092;2023-12-20T13:34:55;3.00;;;0.60;;
57331;SDS011;43164;50.908;18.092;2023-12-20T13:37:23;3.30;;;0.80;;
57331;SDS011;43164;50.908;18.092;2023-12-20T13:39:57;2.50;;;0.70;;
57331;SDS011;43164;50.908;18.092;2023-12-20T13:42:24;4.30;;;0.80;;
57331;SDS011;43164;50.908;18.092;2023-12-20T13:44:53;3.90;;;0.90;;
57331;SDS011;43164;50.908;18.092;2023-12-20T13:47:23;3.60;;;1.00;;
57331;SDS011;43164;50.908;18.092;2023-12-20T13:49:49;2.70;;;0.70;;
57331;SDS011;43164;50.908;18.092;2023-12-20T13:52:16;4.60;;;0.90;;
57331;SDS011;43164;50.908;18.092;2023-12-20T13:54:44;2.70;;;1.00;;
57331;SDS011;43164;50.908;18.092;2023-12-20T13:57:12;2.80;;;0.70;;
57331;SDS011;43164;50.908;18.092;2023-12-20T13:59:40;2.70;;;0.70;;
57331;SDS011;43164;50.908;18.092;2023-12-20T14:02:19;3.50;;;0.80;;
57331;SDS011;43164;50.908;18.092;2023-12-20T14:04:59;4.30;;;0.80;;
57331;SDS011;43164;50.908;18.092;2023-12-20T14:07:33;3.80;;;0.90;;
57331;SDS011;43164;50.908;18.092;2023-12-20T14:10:05;3.60;;;0.90;;
57331;SDS011;43164;50.908;18.092;2023-12-20T14:12:35;4.20;;;0.90;;
57331;SDS011;43164;50.908;18.092;2023-12-20T14:15:05;2.40;;;0.80;;
57331;SDS011;43164;50.908;18.092;2023-12-20T14:17:39;3.20;;;1.00;;
57331;SDS011;43164;50.908;18.092;2023-12-20T14:20:16;3.60;;;1.20;;
57331;SDS011;43164;50.908;18.092;2023-12-20T14:25:15;3.60;;;0.90;;
57331;SDS011;43164;50.908;18.092;2023-12-20T14:27:45;3.10;;;1.10;;
57331;SDS011;43164;50.908;18.092;2023-12-20T14:30:16;3.70;;;0.90;;
57331;SDS011;43164;50.908;18.092;2023-12-20T14:32:44;3.90;;;1.20;;
57331;SDS011;43164;50.908;18.092;2023-12-20T14:35:15;3.40;;;1.20;;
57331;SDS011;43164;50.908;18.092;2023-12-20T14:37:45;4.90;;;1.10;;
57331;SDS011;43164;50.908;18.092;2023-12-20T14:40:20;4.50;;;1.40;;
57331;SDS011;43164;50.908;18.092;2023-12-20T14:42:53;4.20;;;1.30;;
57331;SDS011;43164;50.908;18.092;2023-12-20T14:45:23;5.00;;;1.40;;
57331;SDS011;43164;50.908;18.092;2023-12-20T14:47:57;3.40;;;1.00;;
57331;SDS011;43164;50.908;18.092;2023-12-20T14:50:29;4.40;;;1.40;;
57331;SDS011;43164;50.908;18.092;2023-12-20T14:53:02;4.00;;;1.00;;
57331;SDS011;43164;50.908;18.092;2023-12-20T14:55:30;3.90;;;1.10;;
57331;SDS011;43164;50.908;18.092;2023-12-20T14:57:58;4.40;;;1.20;;
57331;SDS011;43164;50.908;18.092;2023-12-20T15:00:26;4.40;;;1.20;;
57331;SDS011;43164;50.908;18.092;2023-12-20T15:02:59;4.70;;;1.40;;
57331;SDS011;43164;50.908;18.092;2023-12-20T15:05:32;4.40;;;1.50;;
57331;SDS011;43164;50.908;18.092;2023-12-20T15:08:01;4.20;;;1.20;;